Time;durP1;ratioP1;P1;durP2;ratioP2;P2;SDS_P1;SDS_P2;PMS_P1;PMS_P2;Temp;Humidity;BMP_temperature;BMP_pressure;BME280_temperature;BME280_humidity;BME280_pressure;Samples;Min_cycle;Max_cycle;Signal;HPM_P1;HPM_P2
2022/08/08 00:03:28;;;;;;;16.73;11.67;;;;;;;;;;10471568;28;20024;-74
2022/08/08 00:08:35;;;;;;;15.98;10.57;;;;;;;;;;10460348;28;20053;-75
2022/08/08 00:13:47;;;;;;;16.85;10.93;;;;;;;;;;10452019;28;20029;-75
2022/08/08 00:19:02;;;;;;;19.60;12.10;;;;;;;;;;10474996;28;20029;-74
2022/08/08 00:24:28;;;;;;;16.10;12.10;;;;;;;;;;10469214;28;20021;-74
2022/08/08 00:29:35;;;;;;;18.13;11.43;;;;;;;;;;10447420;28;20506;-73
2022/08/08 00:35:10;;;;;;;18.92;13.13;;;;;;;;;;10479404;28;20491;-74
2022/08/08 00:40:29;;;;;;;15.95;12.77;;;;;;;;;;10466450;28;20032;-74
2022/08/08 00:45:48;;;;;;;17.52;12.43;;;;;;;;;;10451597;28;20052;-74
2022/08/08 00:51:06;;;;;;;16.13;12.38;;;;;;;;;;10451467;28;20025;-76
2022/08/08 00:56:25;;;;;;;16.77;11.43;;;;;;;;;;10450962;28;20466;-75
2022/08/08 01:01:26;;;;;;;17.00;11.88;;;;;;;;;;10449746;28;20014;-74
2022/08/08 01:06:45;;;;;;;18.83;12.45;;;;;;;;;;10451127;28;20495;-74
2022/08/08 01:11:55;;;;;;;14.20;11.05;;;;;;;;;;10470338;28;20053;-74
2022/08/08 01:17:01;;;;;;;17.35;11.65;;;;;;;;;;10450897;28;20029;-74
2022/08/08 01:22:13;;;;;;;18.63;12.02;;;;;;;;;;10479205;28;20070;-74
2022/08/08 01:27:32;;;;;;;20.52;12.13;;;;;;;;;;10457037;28;20056;-74
2022/08/08 01:32:51;;;;;;;13.75;9.95;;;;;;;;;;10480184;28;20053;-75
2022/08/08 01:37:51;;;;;;;18.02;9.60;;;;;;;;;;10456567;28;20021;-74
2022/08/08 01:43:10;;;;;;;11.40;8.90;;;;;;;;;;10483757;28;20081;-74
2022/08/08 01:48:43;;;;;;;12.80;9.45;;;;;;;;;;10457105;28;20388;-75
2022/08/08 01:53:52;;;;;;;14.80;9.05;;;;;;;;;;10433287;28;20035;-74
2022/08/08 01:58:56;;;;;;;14.82;10.52;;;;;;;;;;10483314;28;20082;-73
2022/08/08 02:04:05;;;;;;;14.13;10.30;;;;;;;;;;10455111;28;20028;-74
2022/08/08 02:09:10;;;;;;;15.52;10.10;;;;;;;;;;10472976;28;20634;-75
2022/08/08 02:14:16;;;;;;;15.45;9.55;;;;;;;;;;10476092;28;20029;-74
2022/08/08 02:19:25;;;;;;;20.67;11.18;;;;;;;;;;10476018;28;20031;-74
2022/08/08 02:24:27;;;;;;;13.98;10.38;;;;;;;;;;10472851;28;20019;-74
2022/08/08 02:29:52;;;;;;;15.80;9.52;;;;;;;;;;10455246;28;20025;-74
2022/08/08 02:35:01;;;;;;;14.05;10.15;;;;;;;;;;10455447;28;20021;-74
2022/08/08 02:40:10;;;;;;;16.02;9.90;;;;;;;;;;10454018;28;20017;-75
2022/08/08 02:45:29;;;;;;;15.18;9.23;;;;;;;;;;10474179;28;20108;-75
2022/08/08 02:50:42;;;;;;;16.92;10.65;;;;;;;;;;10475020;28;20013;-75
2022/08/08 02:55:45;;;;;;;14.65;9.43;;;;;;;;;;10454578;28;20082;-74
2022/08/08 03:00:52;;;;;;;13.35;9.63;;;;;;;;;;10490058;28;20086;-74
2022/08/08 03:05:52;;;;;;;13.32;9.23;;;;;;;;;;10473985;28;20037;-75
2022/08/08 03:11:11;;;;;;;13.18;9.60;;;;;;;;;;10470529;28;20045;-75
2022/08/08 03:16:23;;;;;;;15.35;9.93;;;;;;;;;;10479849;28;20028;-75
2022/08/08 03:21:24;;;;;;;13.55;9.68;;;;;;;;;;10455402;28;20112;-74
2022/08/08 03:26:27;;;;;;;17.05;9.70;;;;;;;;;;10469950;28;20112;-74
2022/08/08 03:36:46;;;;;;;19.10;11.05;;;;;;;;;;10453599;28;20095;-74
2022/08/08 03:41:47;;;;;;;15.13;9.67;;;;;;;;;;10451935;28;20554;-74
2022/08/08 03:46:48;;;;;;;16.38;10.68;;;;;;;;;;10468392;28;20056;-74
2022/08/08 03:51:52;;;;;;;15.02;10.18;;;;;;;;;;10468014;28;20028;-74
2022/08/08 03:56:52;;;;;;;18.58;9.95;;;;;;;;;;10483511;28;20501;-75
2022/08/08 04:01:53;;;;;;;17.75;11.05;;;;;;;;;;10450780;28;20028;-74
2022/08/08 04:06:57;;;;;;;18.17;10.85;;;;;;;;;;10451983;28;20108;-74
2022/08/08 04:11:58;;;;;;;19.48;12.35;;;;;;;;;;10450194;28;20069;-75
2022/08/08 04:16:59;;;;;;;15.02;10.90;;;;;;;;;;10450391;28;20483;-74
2022/08/08 04:21:59;;;;;;;18.65;12.43;;;;;;;;;;10481035;28;20013;-74
2022/08/08 04:27:00;;;;;;;21.00;12.68;;;;;;;;;;10470191;28;20016;-75
2022/08/08 04:32:00;;;;;;;19.77;12.02;;;;;;;;;;10450199;28;20025;-74
2022/08/08 04:37:00;;;;;;;18.40;12.15;;;;;;;;;;10483324;28;20107;-75
2022/08/08 04:42:00;;;;;;;26.42;11.82;;;;;;;;;;10474127;28;20067;-74
2022/08/08 04:47:01;;;;;;;19.15;11.20;;;;;;;;;;10470396;28;20052;-75
2022/08/08 04:52:01;;;;;;;19.55;11.02;;;;;;;;;;10449751;28;20021;-74
2022/08/08 04:57:02;;;;;;;23.33;12.73;;;;;;;;;;10455896;28;20399;-74
2022/08/08 05:02:03;;;;;;;18.27;11.70;;;;;;;;;;10469374;28;20082;-74
2022/08/08 05:07:03;;;;;;;18.55;11.68;;;;;;;;;;10458460;28;20525;-73
2022/08/08 05:12:04;;;;;;;28.20;12.07;;;;;;;;;;10484041;28;20118;-74
2022/08/08 05:17:04;;;;;;;17.70;10.77;;;;;;;;;;10457973;28;20178;-74
2022/08/08 05:22:05;;;;;;;20.15;11.52;;;;;;;;;;10487500;28;20029;-74
2022/08/08 05:27:06;;;;;;;17.10;10.25;;;;;;;;;;10459472;28;20039;-74
2022/08/08 05:32:07;;;;;;;18.38;9.68;;;;;;;;;;10479233;28;20031;-73
2022/08/08 05:37:08;;;;;;;14.25;9.73;;;;;;;;;;10455595;28;20021;-74
2022/08/08 05:42:09;;;;;;;17.00;9.38;;;;;;;;;;10473544;28;20041;-75
2022/08/08 05:47:10;;;;;;;16.67;8.60;;;;;;;;;;10473411;28;20025;-74
2022/08/08 05:52:10;;;;;;;13.50;7.57;;;;;;;;;;10455323;28;20059;-74
2022/08/08 05:57:13;;;;;;;15.63;7.63;;;;;;;;;;10475651;28;20032;-74
2022/08/08 06:07:40;;;;;;;10.25;6.88;;;;;;;;;;10455042;28;20029;-74
2022/08/08 06:12:41;;;;;;;15.07;7.75;;;;;;;;;;10478285;28;20017;-74
2022/08/08 06:17:41;;;;;;;13.73;7.18;;;;;;;;;;10469252;28;20028;-74
2022/08/08 06:22:42;;;;;;;11.15;6.10;;;;;;;;;;10473224;28;20170;-74
2022/08/08 06:27:49;;;;;;;10.15;6.25;;;;;;;;;;10475261;28;20024;-76
2022/08/08 06:32:51;;;;;;;14.05;6.93;;;;;;;;;;10473108;28;20115;-74
2022/08/08 06:37:53;;;;;;;10.82;6.38;;;;;;;;;;10454704;28;20450;-74
2022/08/08 06:42:54;;;;;;;8.07;5.43;;;;;;;;;;10482319;28;20021;-75
2022/08/08 06:47:55;;;;;;;10.57;5.97;;;;;;;;;;10467033;28;20028;-74
2022/08/08 06:52:55;;;;;;;8.55;5.15;;;;;;;;;;10453263;28;20025;-74
2022/08/08 06:57:56;;;;;;;6.13;4.53;;;;;;;;;;10454379;28;20017;-74
2022/08/08 07:02:59;;;;;;;6.82;5.03;;;;;;;;;;10454524;28;20060;-74
2022/08/08 07:08:00;;;;;;;9.15;5.90;;;;;;;;;;10470672;28;20051;-74
2022/08/08 07:13:00;;;;;;;8.18;4.93;;;;;;;;;;10452550;28;20025;-74
2022/08/08 07:18:02;;;;;;;4.70;3.90;;;;;;;;;;10451903;28;20021;-74
2022/08/08 07:23:21;;;;;;;5.47;4.35;;;;;;;;;;10453313;28;20027;-75
2022/08/08 07:28:23;;;;;;;11.05;3.63;;;;;;;;;;10453163;28;20025;-74
2022/08/08 07:33:23;;;;;;;8.50;3.97;;;;;;;;;;10472246;28;20021;-75
2022/08/08 07:38:23;;;;;;;7.88;4.63;;;;;;;;;;10475042;28;20104;-73
2022/08/08 07:43:24;;;;;;;6.28;3.40;;;;;;;;;;10483152;28;20021;-74
2022/08/08 07:48:24;;;;;;;8.80;2.90;;;;;;;;;;10474145;28;20075;-74
2022/08/08 07:53:45;;;;;;;5.00;2.70;;;;;;;;;;10467011;28;20453;-73
2022/08/08 07:58:46;;;;;;;5.00;2.35;;;;;;;;;;10443429;28;20029;-73
2022/08/08 08:03:54;;;;;;;5.65;2.65;;;;;;;;;;10451688;28;20033;-75
2022/08/08 08:09:03;;;;;;;3.55;2.40;;;;;;;;;;10451390;28;20044;-74
2022/08/08 08:14:08;;;;;;;5.13;2.28;;;;;;;;;;10467485;28;20479;-73
2022/08/08 08:19:09;;;;;;;6.23;2.87;;;;;;;;;;10471451;28;20108;-74
2022/08/08 08:24:11;;;;;;;7.55;3.30;;;;;;;;;;10449935;28;20049;-75
2022/08/08 08:29:11;;;;;;;3.47;2.80;;;;;;;;;;10453911;28;20033;-74
2022/08/08 08:34:11;;;;;;;5.32;2.53;;;;;;;;;;10459783;28;20021;-74
2022/08/08 08:39:12;;;;;;;7.93;2.67;;;;;;;;;;10479764;28;20021;-75
2022/08/08 08:44:13;;;;;;;7.07;2.20;;;;;;;;;;10461448;28;20020;-74
2022/08/08 08:49:13;;;;;;;4.53;2.78;;;;;;;;;;10484254;28;20104;-74
2022/08/08 08:54:14;;;;;;;6.37;2.20;;;;;;;;;;10459119;28;20505;-74
2022/08/08 08:59:14;;;;;;;8.15;2.35;;;;;;;;;;10475364;28;20049;-76
2022/08/08 09:04:20;;;;;;;3.92;2.17;;;;;;;;;;10455705;28;20433;-73
2022/08/08 09:09:28;;;;;;;9.73;2.72;;;;;;;;;;10458491;28;20049;-78
2022/08/08 09:14:29;;;;;;;5.60;3.55;;;;;;;;;;10473972;28;20037;-73
2022/08/08 09:19:29;;;;;;;6.70;2.70;;;;;;;;;;10474712;28;20053;-74
2022/08/08 09:24:31;;;;;;;5.88;2.67;;;;;;;;;;10481994;28;20048;-74
2022/08/08 09:29:36;;;;;;;5.32;3.08;;;;;;;;;;10460744;28;20414;-78
2022/08/08 09:34:38;;;;;;;3.03;2.07;;;;;;;;;;10456233;28;20060;-73
2022/08/08 09:39:44;;;;;;;6.10;2.40;;;;;;;;;;10471111;28;20632;-75
2022/08/08 09:45:05;;;;;;;4.47;2.40;;;;;;;;;;10479068;28;20363;-74
2022/08/08 09:50:07;;;;;;;6.88;2.20;;;;;;;;;;10454624;28;20037;-73
2022/08/08 09:55:09;;;;;;;5.20;1.73;;;;;;;;;;10438703;28;20029;-72
2022/08/08 10:00:11;;;;;;;6.22;1.50;;;;;;;;;;10486895;28;20021;-74
2022/08/08 10:05:15;;;;;;;2.00;1.50;;;;;;;;;;10475954;28;20029;-74
2022/08/08 10:10:25;;;;;;;5.18;1.73;;;;;;;;;;10482054;28;20067;-74
2022/08/08 10:15:27;;;;;;;4.70;1.10;;;;;;;;;;10472839;28;20032;-75
2022/08/08 10:20:28;;;;;;;4.53;1.27;;;;;;;;;;10491519;28;20031;-74
2022/08/08 10:25:28;;;;;;;3.97;1.20;;;;;;;;;;10454577;28;20074;-74
2022/08/08 10:30:29;;;;;;;5.78;1.40;;;;;;;;;;10437526;28;20075;-74
2022/08/08 10:35:30;;;;;;;2.67;1.20;;;;;;;;;;10478491;28;20028;-74
2022/08/08 10:40:31;;;;;;;2.28;1.40;;;;;;;;;;10469700;28;20021;-74
2022/08/08 10:45:41;;;;;;;2.33;1.30;;;;;;;;;;10482429;28;20103;-75
2022/08/08 10:50:41;;;;;;;6.43;1.45;;;;;;;;;;10478640;28;20016;-74
2022/08/08 10:55:41;;;;;;;3.13;1.00;;;;;;;;;;10472616;28;20406;-75
2022/08/08 11:00:43;;;;;;;7.82;1.58;;;;;;;;;;10452858;28;20055;-73
2022/08/08 11:05:50;;;;;;;6.03;1.58;;;;;;;;;;10454068;28;20009;-75
2022/08/08 11:11:07;;;;;;;2.17;1.10;;;;;;;;;;10448092;28;20107;-74
2022/08/08 11:16:08;;;;;;;1.98;1.30;;;;;;;;;;10469756;28;20029;-74
2022/08/08 11:21:09;;;;;;;3.13;1.58;;;;;;;;;;10452017;28;20142;-74
2022/08/08 11:26:16;;;;;;;1.63;1.35;;;;;;;;;;10470246;28;20446;-73
2022/08/08 11:31:18;;;;;;;6.93;1.58;;;;;;;;;;10452924;28;20108;-73
2022/08/08 11:36:19;;;;;;;5.40;1.90;;;;;;;;;;10474582;28;20107;-75
2022/08/08 11:41:20;;;;;;;8.30;1.80;;;;;;;;;;10452728;28;20108;-73
2022/08/08 11:46:24;;;;;;;6.35;2.47;;;;;;;;;;10462294;28;20128;-74
2022/08/08 11:51:25;;;;;;;4.82;1.95;;;;;;;;;;10459866;28;20150;-74
2022/08/08 11:56:30;;;;;;;6.57;2.17;;;;;;;;;;10451889;28;20021;-75
2022/08/08 12:01:31;;;;;;;9.18;2.35;;;;;;;;;;10450306;28;20047;-74
2022/08/08 12:06:32;;;;;;;8.93;2.88;;;;;;;;;;10450892;28;20016;-75
2022/08/08 12:11:40;;;;;;;13.98;3.35;;;;;;;;;;10480066;28;20055;-74
2022/08/08 12:16:47;;;;;;;4.57;2.30;;;;;;;;;;10468421;28;20074;-74
2022/08/08 12:21:48;;;;;;;7.32;2.42;;;;;;;;;;10433142;28;20024;-74
2022/08/08 12:26:49;;;;;;;2.85;2.00;;;;;;;;;;10464654;28;20020;-75
2022/08/08 12:32:05;;;;;;;11.00;2.92;;;;;;;;;;10454632;28;20414;-74
2022/08/08 12:37:07;;;;;;;4.03;2.35;;;;;;;;;;10476943;28;20025;-74
2022/08/08 12:42:07;;;;;;;6.05;1.83;;;;;;;;;;10473879;28;20027;-74
2022/08/08 12:47:08;;;;;;;9.73;2.40;;;;;;;;;;10467757;28;20112;-74
2022/08/08 12:52:18;;;;;;;6.10;2.35;;;;;;;;;;10467020;28;20014;-73
2022/08/08 12:57:22;;;;;;;2.60;2.20;;;;;;;;;;10466616;28;20021;-73
2022/08/08 13:02:24;;;;;;;6.35;1.60;;;;;;;;;;10445027;28;20017;-73
2022/08/08 13:07:35;;;;;;;5.75;1.58;;;;;;;;;;10449639;28;20033;-74
2022/08/08 13:12:39;;;;;;;8.00;1.88;;;;;;;;;;10467147;28;20089;-74
2022/08/08 13:17:40;;;;;;;6.78;1.65;;;;;;;;;;10454988;28;20495;-75
2022/08/08 13:22:42;;;;;;;5.95;2.38;;;;;;;;;;10474104;28;20025;-74
2022/08/08 13:27:43;;;;;;;11.88;2.00;;;;;;;;;;10472073;28;20174;-73
2022/08/08 13:32:43;;;;;;;6.97;2.35;;;;;;;;;;10473388;28;20096;-74
2022/08/08 13:37:44;;;;;;;4.43;1.40;;;;;;;;;;10457008;28;20024;-74
2022/08/08 13:42:45;;;;;;;12.60;2.05;;;;;;;;;;10474269;28;20121;-74
2022/08/08 13:47:58;;;;;;;5.17;1.90;;;;;;;;;;10488674;28;20060;-75
2022/08/08 13:52:58;;;;;;;6.20;2.33;;;;;;;;;;10474493;28;20024;-73
2022/08/08 13:57:58;;;;;;;6.15;2.03;;;;;;;;;;10470310;28;20021;-74
2022/08/08 14:02:59;;;;;;;8.70;1.87;;;;;;;;;;10454875;28;20013;-74
2022/08/08 14:08:02;;;;;;;2.60;1.65;;;;;;;;;;10473949;28;20044;-73
2022/08/08 14:13:08;;;;;;;9.68;3.30;;;;;;;;;;10471936;28;20029;-75
2022/08/08 14:18:08;;;;;;;6.28;1.50;;;;;;;;;;10481222;28;20032;-74
2022/08/08 14:23:09;;;;;;;5.87;1.90;;;;;;;;;;10471713;28;20409;-75
2022/08/08 14:28:09;;;;;;;3.95;1.85;;;;;;;;;;10467669;28;20299;-74
2022/08/08 14:33:10;;;;;;;2.27;1.53;;;;;;;;;;10453759;28;20457;-75
2022/08/08 14:38:11;;;;;;;4.15;1.70;;;;;;;;;;10483749;28;20020;-74
2022/08/08 14:43:11;;;;;;;5.43;1.80;;;;;;;;;;10454395;28;20576;-74
2022/08/08 14:48:11;;;;;;;2.63;1.73;;;;;;;;;;10473476;28;20028;-74
2022/08/08 14:53:12;;;;;;;2.75;1.90;;;;;;;;;;10471556;28;20044;-75
2022/08/08 14:58:12;;;;;;;2.65;1.60;;;;;;;;;;10449000;28;20055;-75
2022/08/08 15:03:13;;;;;;;4.35;1.67;;;;;;;;;;10452890;28;20467;-76
2022/08/08 15:08:15;;;;;;;8.60;2.00;;;;;;;;;;10454160;28;20446;-74
2022/08/08 15:13:16;;;;;;;5.32;2.20;;;;;;;;;;10471448;28;20649;-74
2022/08/08 15:18:16;;;;;;;6.53;2.00;;;;;;;;;;10478849;28;20020;-74
2022/08/08 15:23:16;;;;;;;6.20;1.93;;;;;;;;;;10476935;28;20125;-74
2022/08/08 15:28:16;;;;;;;3.72;1.88;;;;;;;;;;10462787;28;20059;-75
2022/08/08 15:33:17;;;;;;;4.85;1.85;;;;;;;;;;10456471;28;20032;-75
2022/08/08 15:38:19;;;;;;;7.07;2.00;;;;;;;;;;10468109;28;20056;-74
2022/08/08 15:43:19;;;;;;;8.18;1.80;;;;;;;;;;10471425;28;20324;-74
2022/08/08 15:48:19;;;;;;;6.88;2.00;;;;;;;;;;10461206;28;20025;-75
2022/08/08 15:53:22;;;;;;;6.00;2.30;;;;;;;;;;10451913;28;20115;-76
2022/08/08 15:58:23;;;;;;;5.32;1.77;;;;;;;;;;10467973;28;20021;-75
2022/08/08 16:03:23;;;;;;;5.00;2.10;;;;;;;;;;10439449;28;20017;-74
2022/08/08 16:08:24;;;;;;;3.95;2.17;;;;;;;;;;10450344;28;20514;-74
2022/08/08 16:13:24;;;;;;;4.20;3.00;;;;;;;;;;10450169;28;20433;-75
2022/08/08 16:18:24;;;;;;;7.07;4.10;;;;;;;;;;10451108;28;20487;-74
2022/08/08 16:23:25;;;;;;;19.27;6.15;;;;;;;;;;10451185;28;20064;-76
2022/08/08 16:28:25;;;;;;;11.27;4.97;;;;;;;;;;10473603;28;20032;-74
2022/08/08 16:33:25;;;;;;;9.95;5.55;;;;;;;;;;10449754;28;20044;-75
2022/08/08 16:38:26;;;;;;;10.50;4.22;;;;;;;;;;10451212;28;20408;-74
2022/08/08 16:43:26;;;;;;;6.60;4.50;;;;;;;;;;10467342;28;20463;-74
2022/08/08 16:48:26;;;;;;;7.97;4.97;;;;;;;;;;10470841;28;20106;-75
2022/08/08 16:53:27;;;;;;;12.70;5.13;;;;;;;;;;10478900;28;20098;-74
2022/08/08 16:58:27;;;;;;;7.82;5.38;;;;;;;;;;10475430;28;20060;-75
2022/08/08 17:03:27;;;;;;;7.43;5.30;;;;;;;;;;10488995;28;20077;-74
2022/08/08 17:08:28;;;;;;;8.25;4.88;;;;;;;;;;10486647;28;20310;-74
2022/08/08 17:13:28;;;;;;;6.43;4.75;;;;;;;;;;10474892;28;20067;-74
2022/08/08 17:18:28;;;;;;;15.05;5.30;;;;;;;;;;10484582;28;20111;-74
2022/08/08 17:23:28;;;;;;;7.03;4.60;;;;;;;;;;10460927;28;20017;-74
2022/08/08 17:28:29;;;;;;;8.35;4.80;;;;;;;;;;10474492;28;20513;-73
2022/08/08 17:33:29;;;;;;;7.93;5.07;;;;;;;;;;10446430;28;20443;-75
2022/08/08 17:38:29;;;;;;;7.63;4.45;;;;;;;;;;10474696;28;20086;-75
2022/08/08 17:43:29;;;;;;;7.28;5.30;;;;;;;;;;10481168;28;20029;-73
2022/08/08 17:48:30;;;;;;;8.83;5.47;;;;;;;;;;10455670;28;20048;-75
2022/08/08 17:53:30;;;;;;;9.27;5.80;;;;;;;;;;10455292;28;20495;-74
2022/08/08 17:58:30;;;;;;;8.23;4.47;;;;;;;;;;10473608;28;20479;-75
2022/08/08 18:03:30;;;;;;;7.65;3.20;;;;;;;;;;10455002;28;20036;-74
2022/08/08 18:08:34;;;;;;;5.45;3.08;;;;;;;;;;10473992;28;20178;-74
2022/08/08 18:13:35;;;;;;;7.45;3.63;;;;;;;;;;10475374;28;20090;-74
2022/08/08 18:18:35;;;;;;;5.43;3.40;;;;;;;;;;10486269;28;20032;-74
2022/08/08 18:23:35;;;;;;;14.82;3.42;;;;;;;;;;10470157;28;20106;-75
2022/08/08 18:28:36;;;;;;;6.38;4.07;;;;;;;;;;10471599;28;20035;-74
2022/08/08 18:33:36;;;;;;;5.15;3.55;;;;;;;;;;10470789;28;20082;-75
2022/08/08 18:38:36;;;;;;;7.68;4.07;;;;;;;;;;10453700;28;20028;-74
2022/08/08 18:43:36;;;;;;;6.47;4.25;;;;;;;;;;10474685;28;20200;-74
2022/08/08 18:48:38;;;;;;;8.70;5.30;;;;;;;;;;10472042;28;20412;-74
2022/08/08 18:53:39;;;;;;;10.10;4.57;;;;;;;;;;10470630;28;20028;-75
2022/08/08 18:58:39;;;;;;;10.90;5.53;;;;;;;;;;10454277;28;20518;-74
2022/08/08 19:03:39;;;;;;;6.83;5.07;;;;;;;;;;10476773;28;20013;-75
2022/08/08 19:08:40;;;;;;;8.00;5.57;;;;;;;;;;10454212;28;20132;-74
2022/08/08 19:13:40;;;;;;;8.80;5.45;;;;;;;;;;10469920;28;20505;-74
2022/08/08 19:18:40;;;;;;;8.63;5.83;;;;;;;;;;10480928;28;20021;-74
2022/08/08 19:23:41;;;;;;;11.77;6.32;;;;;;;;;;10452062;28;20499;-75
2022/08/08 19:28:41;;;;;;;20.08;5.70;;;;;;;;;;10451696;28;20028;-75
2022/08/08 19:33:41;;;;;;;10.45;5.28;;;;;;;;;;10451624;28;20025;-74
2022/08/08 19:38:41;;;;;;;10.75;5.18;;;;;;;;;;10469105;28;20112;-73
2022/08/08 19:43:42;;;;;;;14.50;5.13;;;;;;;;;;10452990;28;20426;-76
2022/08/08 19:48:43;;;;;;;9.57;4.85;;;;;;;;;;10471248;28;20025;-75
2022/08/08 19:53:44;;;;;;;7.97;4.53;;;;;;;;;;10473533;28;20401;-74
2022/08/08 19:58:45;;;;;;;8.70;4.55;;;;;;;;;;10476099;28;20550;-74
2022/08/08 20:03:45;;;;;;;10.35;5.07;;;;;;;;;;10469862;28;20096;-75
2022/08/08 20:08:45;;;;;;;7.27;4.33;;;;;;;;;;10470610;28;20187;-74
2022/08/08 20:13:46;;;;;;;7.00;4.45;;;;;;;;;;10451836;28;20403;-74
2022/08/08 20:18:48;;;;;;;9.48;4.28;;;;;;;;;;10468381;28;20016;-74
2022/08/08 20:23:48;;;;;;;7.63;4.57;;;;;;;;;;10450354;28;20059;-74
2022/08/08 20:28:49;;;;;;;8.15;4.15;;;;;;;;;;10477795;28;20017;-75
2022/08/08 20:33:49;;;;;;;7.78;3.97;;;;;;;;;;10472271;28;20566;-74
2022/08/08 20:38:49;;;;;;;11.63;4.47;;;;;;;;;;10468466;28;20021;-74
2022/08/08 20:43:50;;;;;;;4.93;3.58;;;;;;;;;;10451060;28;20063;-75
2022/08/08 20:48:50;;;;;;;7.93;3.90;;;;;;;;;;10467797;28;20036;-74
2022/08/08 20:53:51;;;;;;;4.78;3.20;;;;;;;;;;10450957;28;20032;-75
2022/08/08 20:58:51;;;;;;;7.80;3.95;;;;;;;;;;10468906;28;20471;-74
2022/08/08 21:15:08;;;;;;;7.33;3.43;;;;;;;;;;10456286;28;20063;-74
2022/08/08 21:20:09;;;;;;;9.10;3.33;;;;;;;;;;10469101;28;20466;-75
2022/08/08 21:25:09;;;;;;;4.05;3.58;;;;;;;;;;10449547;28;20029;-74
2022/08/08 21:30:10;;;;;;;8.00;3.93;;;;;;;;;;10469765;28;20115;-75
2022/08/08 21:35:10;;;;;;;9.60;3.42;;;;;;;;;;10450362;28;20028;-74
2022/08/08 21:40:11;;;;;;;7.13;3.27;;;;;;;;;;10456297;28;20025;-75
2022/08/08 21:45:11;;;;;;;6.30;4.00;;;;;;;;;;10474771;28;20021;-74
2022/08/08 21:50:12;;;;;;;7.80;3.78;;;;;;;;;;10473222;28;20021;-74
2022/08/08 21:55:12;;;;;;;7.68;4.03;;;;;;;;;;10455722;28;20016;-74
2022/08/08 22:00:12;;;;;;;8.80;3.65;;;;;;;;;;10473252;28;20509;-74
2022/08/08 22:05:13;;;;;;;9.43;3.23;;;;;;;;;;10456832;28;20381;-75
2022/08/08 22:10:13;;;;;;;6.47;3.97;;;;;;;;;;10469869;28;20275;-74
2022/08/08 22:15:13;;;;;;;8.70;4.07;;;;;;;;;;10456289;28;20097;-75
2022/08/08 22:20:13;;;;;;;11.90;4.70;;;;;;;;;;10455116;28;20025;-74
2022/08/08 22:25:14;;;;;;;6.18;3.92;;;;;;;;;;10438870;28;20045;-74
2022/08/08 22:30:15;;;;;;;6.05;4.05;;;;;;;;;;10454912;28;20116;-74
2022/08/08 22:35:17;;;;;;;5.55;4.22;;;;;;;;;;10455727;28;20511;-74
2022/08/08 22:40:17;;;;;;;6.03;4.05;;;;;;;;;;10454216;28;20104;-74
2022/08/08 22:45:17;;;;;;;11.52;4.82;;;;;;;;;;10477826;28;20469;-74
2022/08/08 22:50:17;;;;;;;6.00;4.38;;;;;;;;;;10476927;28;20402;-74
2022/08/08 22:55:18;;;;;;;7.15;4.45;;;;;;;;;;10464485;28;20036;-75
2022/08/08 23:00:18;;;;;;;6.55;4.38;;;;;;;;;;10486969;28;20040;-74
2022/08/08 23:05:18;;;;;;;10.73;5.70;;;;;;;;;;10453321;28;20035;-74
2022/08/08 23:10:19;;;;;;;11.93;4.70;;;;;;;;;;10452843;28;20059;-74
2022/08/08 23:15:20;;;;;;;7.03;4.10;;;;;;;;;;10471683;28;20060;-75
2022/08/08 23:20:20;;;;;;;6.43;4.47;;;;;;;;;;10477599;28;20029;-74
2022/08/08 23:25:20;;;;;;;9.67;4.93;;;;;;;;;;10483343;28;20108;-74
2022/08/08 23:30:21;;;;;;;6.73;4.30;;;;;;;;;;10472020;28;20111;-74
2022/08/08 23:35:21;;;;;;;10.25;4.30;;;;;;;;;;10469984;28;20029;-74
2022/08/08 23:40:22;;;;;;;6.07;3.80;;;;;;;;;;10472422;28;20021;-74
2022/08/08 23:45:22;;;;;;;9.07;4.28;;;;;;;;;;10452979;28;20029;-76
2022/08/08 23:50:22;;;;;;;6.57;3.80;;;;;;;;;;10480286;28;20028;-75
2022/08/08 23:55:25;;;;;;;7.40;3.97;;;;;;;;;;10473041;28;20028;-74
